Time;durP1;ratioP1;P1;durP2;ratioP2;P2;SDS_P1;SDS_P2;PMS_P1;PMS_P2;Temp;Humidity;BMP_temperature;BMP_pressure;BME280_temperature;BME280_humidity;BME280_pressure;Samples;Min_cycle;Max_cycle;Signal;HPM_P1;HPM_P2
2022/12/30 00:01:10;;;;;;;18.10;16.33;;;11.50;1.00;;;;;;5032323;28;20487;-62
2022/12/30 00:03:36;;;;;;;18.88;16.90;;;11.50;1.00;;;;;;5031892;28;20045;-61
2022/12/30 00:06:04;;;;;;;19.27;17.20;;;11.50;1.00;;;;;;5032478;28;20030;-62
2022/12/30 00:08:47;;;;;;;17.52;15.85;;;11.50;1.00;;;;;;5030686;28;20096;-61
2022/12/30 00:11:33;;;;;;;17.60;15.55;;;11.50;1.00;;;;;;5030764;28;20471;-61
2022/12/30 00:34:06;;;;;;;19.52;16.77;;;11.40;1.00;;;;;;5031938;28;20055;-61
2022/12/30 00:36:32;;;;;;;22.63;18.60;;;11.40;1.00;;;;;;5030482;28;20083;-62
2022/12/30 00:38:58;;;;;;;22.55;17.88;;;11.50;1.00;;;;;;5031526;28;20084;-62
2022/12/30 00:44:08;;;;;;;19.93;16.97;;;11.40;1.00;;;;;;5031676;28;20044;-62
2022/12/30 00:46:34;;;;;;;24.27;17.92;;;11.40;1.00;;;;;;5031876;28;20021;-62
2022/12/30 00:57:13;;;;;;;21.83;19.08;;;11.50;1.00;;;;;;5029383;28;20045;-62
2022/12/30 00:59:39;;;;;;;25.33;20.13;;;11.50;1.00;;;;;;5014385;28;20084;-61
2022/12/30 01:02:05;;;;;;;22.80;18.67;;;11.40;1.00;;;;;;5031867;28;20033;-61
2022/12/30 01:04:30;;;;;;;20.90;18.38;;;11.50;1.00;;;;;;5028529;28;20113;-62
2022/12/30 01:06:56;;;;;;;24.88;21.20;;;11.40;1.00;;;;;;5022414;28;20037;-61
2022/12/30 01:09:22;;;;;;;26.95;20.75;;;11.30;1.00;;;;;;5031551;28;20019;-61
2022/12/30 01:12:29;;;;;;;26.20;21.80;;;11.40;1.00;;;;;;5029919;28;20026;-62
2022/12/30 01:14:42;;;;;;;27.05;21.35;;;11.40;1.00;;;;;;5024847;28;20041;-61
2022/12/30 01:17:10;;;;;;;28.33;22.27;;;11.40;1.00;;;;;;5029838;28;20026;-61
2022/12/30 01:19:36;;;;;;;31.42;23.25;;;11.40;1.00;;;;;;5031480;28;20031;-61
2022/12/30 01:22:02;;;;;;;37.28;25.65;;;11.40;1.00;;;;;;5031075;28;20037;-62
2022/12/30 01:24:28;;;;;;;34.38;25.25;;;11.40;1.00;;;;;;5031309;28;20171;-61
2022/12/30 01:26:54;;;;;;;32.95;25.70;;;11.40;1.00;;;;;;5030038;28;20121;-62
2022/12/30 01:29:34;;;;;;;36.03;25.35;;;11.50;1.00;;;;;;5031248;28;20044;-62
2022/12/30 01:32:00;;;;;;;40.97;27.48;;;11.40;1.00;;;;;;5028960;28;20380;-62
2022/12/30 01:34:28;;;;;;;45.97;30.20;;;11.40;1.00;;;;;;5031265;28;20029;-62
2022/12/30 01:36:54;;;;;;;45.80;31.23;;;11.40;1.00;;;;;;5028503;28;20041;-62
2022/12/30 01:39:20;;;;;;;46.38;30.77;;;11.40;1.00;;;;;;5028990;28;20407;-61
2022/12/30 01:41:46;;;;;;;46.10;32.10;;;11.40;1.00;;;;;;5031207;28;20045;-61
2022/12/30 01:44:50;;;;;;;52.92;33.53;;;11.40;1.00;;;;;;5028713;28;20025;-62
2022/12/30 01:47:37;;;;;;;51.13;33.53;;;11.40;1.00;;;;;;5024520;28;20021;-62
2022/12/30 01:50:11;;;;;;;48.83;32.35;;;11.40;1.00;;;;;;5031376;28;20064;-61
2022/12/30 01:52:52;;;;;;;45.45;30.20;;;11.30;1.00;;;;;;5043886;28;20021;-61
2022/12/30 01:55:25;;;;;;;53.25;33.42;;;11.40;1.00;;;;;;5032204;28;20444;-61
2022/12/30 01:57:53;;;;;;;59.47;35.85;;;11.40;1.00;;;;;;5033598;28;20497;-62
2022/12/30 02:00:19;;;;;;;59.55;36.08;;;11.40;1.00;;;;;;5023857;28;20042;-61
2022/12/30 02:02:45;;;;;;;51.80;34.10;;;11.30;1.00;;;;;;5031662;28;20036;-61
2022/12/30 02:08:53;;;;;;;52.83;34.67;;;11.30;1.00;;;;;;5026243;28;20146;-61
2022/12/30 02:11:19;;;;;;;62.88;37.42;;;11.30;1.00;;;;;;5022503;28;20320;-61
2022/12/30 02:13:45;;;;;;;56.97;35.58;;;11.30;1.00;;;;;;5034684;28;20112;-62
2022/12/30 02:16:32;;;;;;;54.65;35.15;;;11.30;1.00;;;;;;5034525;28;20023;-61
2022/12/30 02:19:03;;;;;;;53.42;33.97;;;11.40;1.00;;;;;;5033766;28;20529;-62
2022/12/30 02:21:37;;;;;;;55.17;34.38;;;11.40;1.00;;;;;;5021934;28;20347;-62
2022/12/30 02:24:30;;;;;;;51.40;34.45;;;11.30;1.00;;;;;;5033292;28;20036;-62
2022/12/30 02:27:17;;;;;;;49.05;32.88;;;11.30;1.00;;;;;;5034252;28;20024;-62
2022/12/30 02:30:05;;;;;;;49.92;33.08;;;11.30;1.00;;;;;;5032933;28;20029;-62
2022/12/30 02:33:04;;;;;;;52.55;33.88;;;11.30;1.00;;;;;;5031094;28;20030;-62
2022/12/30 02:35:50;;;;;;;51.13;32.45;;;11.30;1.00;;;;;;5023863;28;20155;-62
2022/12/30 02:38:18;;;;;;;45.15;29.88;;;11.30;1.00;;;;;;5033983;28;20018;-61
2022/12/30 02:46:45;;;;;;;45.25;29.73;;;11.30;1.00;;;;;;5019344;28;20391;-62
2022/12/30 02:49:13;;;;;;;43.95;29.90;;;11.20;1.00;;;;;;5032724;28;20040;-62
2022/12/30 02:54:26;;;;;;;44.53;29.30;;;11.20;1.00;;;;;;5034245;28;20030;-61
2022/12/30 02:56:52;;;;;;;42.70;28.15;;;11.20;1.00;;;;;;5030749;28;20430;-62
2022/12/30 03:05:53;;;;;;;39.03;27.23;;;11.20;1.00;;;;;;5021917;28;20040;-61
2022/12/30 03:08:29;;;;;;;38.97;25.85;;;11.30;1.00;;;;;;5033545;28;20029;-61
2022/12/30 03:11:15;;;;;;;39.42;27.05;;;11.30;1.00;;;;;;5033572;28;20037;-62
2022/12/30 03:14:09;;;;;;;32.95;23.65;;;11.20;1.00;;;;;;5033405;28;20036;-61
2022/12/30 03:16:42;;;;;;;34.58;24.50;;;11.10;1.00;;;;;;5024359;28;20479;-62
2022/12/30 03:19:21;;;;;;;34.97;24.67;;;11.20;1.00;;;;;;5032222;28;20110;-62
2022/12/30 03:21:50;;;;;;;28.42;22.10;;;11.30;1.00;;;;;;5024368;28;20399;-61
2022/12/30 03:27:09;;;;;;;30.80;22.75;;;11.20;1.00;;;;;;5033445;28;20060;-61
2022/12/30 03:29:49;;;;;;;34.05;23.50;;;11.20;1.00;;;;;;5031914;28;20363;-62
2022/12/30 03:32:16;;;;;;;33.45;22.63;;;11.20;1.00;;;;;;5033402;28;20112;-61
2022/12/30 03:34:43;;;;;;;27.88;19.95;;;11.20;1.00;;;;;;5031449;28;20349;-61
2022/12/30 03:37:28;;;;;;;30.48;21.85;;;11.30;1.00;;;;;;5032154;28;20033;-62
2022/12/30 03:39:59;;;;;;;27.02;19.45;;;11.30;1.00;;;;;;5024025;28;20159;-62
2022/12/30 03:42:25;;;;;;;25.52;19.05;;;11.30;1.00;;;;;;5032812;28;20037;-61
2022/12/30 03:44:51;;;;;;;27.83;19.98;;;11.30;1.00;;;;;;5024622;28;20029;-61
2022/12/30 03:47:18;;;;;;;26.05;19.30;;;11.30;1.00;;;;;;5029133;28;20048;-61
2022/12/30 03:49:45;;;;;;;27.58;20.83;;;11.30;1.00;;;;;;5025087;28;20033;-61
2022/12/30 03:52:11;;;;;;;24.92;19.17;;;11.30;1.00;;;;;;5032469;28;20445;-61
2022/12/30 03:54:55;;;;;;;24.45;18.25;;;11.30;1.00;;;;;;5027183;28;20022;-61
2022/12/30 03:57:21;;;;;;;20.02;16.25;;;11.30;1.00;;;;;;5022107;28;20036;-61
2022/12/30 03:59:47;;;;;;;21.65;16.45;;;11.30;1.00;;;;;;5025762;28;20034;-61
2022/12/30 04:02:12;;;;;;;23.65;18.65;;;11.30;1.00;;;;;;5031229;28;20065;-61
2022/12/30 04:04:38;;;;;;;20.95;16.83;;;11.30;1.00;;;;;;5032322;28;20096;-61
2022/12/30 04:07:09;;;;;;;24.30;18.65;;;11.30;1.00;;;;;;5029661;28;20025;-61
2022/12/30 04:09:35;;;;;;;24.45;18.08;;;11.30;1.00;;;;;;5017474;28;20034;-61
2022/12/30 04:12:01;;;;;;;24.83;19.27;;;11.30;1.00;;;;;;5029263;28;20479;-61
2022/12/30 04:14:26;;;;;;;25.73;19.75;;;11.30;1.00;;;;;;5030801;28;20021;-61
2022/12/30 04:16:52;;;;;;;25.30;19.10;;;11.30;1.00;;;;;;5030333;28;20038;-61
2022/12/30 04:19:23;;;;;;;24.85;18.77;;;11.30;1.00;;;;;;5032030;28;20021;-61
2022/12/30 04:21:49;;;;;;;20.35;15.77;;;11.30;1.00;;;;;;5022829;28;20046;-62
2022/12/30 04:24:14;;;;;;;21.02;16.83;;;11.40;1.00;;;;;;5031602;28;20368;-61
2022/12/30 04:26:41;;;;;;;20.55;15.20;;;11.30;1.00;;;;;;5031860;28;20022;-61
2022/12/30 04:29:06;;;;;;;20.13;15.68;;;11.30;1.00;;;;;;5030365;28;20022;-61
2022/12/30 04:31:32;;;;;;;21.92;16.67;;;11.30;1.00;;;;;;5032017;28;20182;-61
2022/12/30 04:33:58;;;;;;;21.17;16.67;;;11.20;1.00;;;;;;5031229;28;20022;-61
2022/12/30 04:36:24;;;;;;;21.52;16.85;;;11.30;1.00;;;;;;5018302;28;20056;-61
2022/12/30 04:38:49;;;;;;;20.35;15.85;;;11.30;1.00;;;;;;5031826;28;20431;-61
2022/12/30 04:41:17;;;;;;;23.58;17.40;;;11.30;1.00;;;;;;5031545;28;20044;-61
2022/12/30 04:43:44;;;;;;;20.23;15.82;;;11.30;1.00;;;;;;5030199;28;20037;-62
2022/12/30 04:46:10;;;;;;;18.80;14.48;;;11.20;99.90;;;;;;5031833;28;20028;-61
2022/12/30 04:48:39;;;;;;;19.88;16.02;;;11.10;99.90;;;;;;5023672;28;20032;-61
2022/12/30 04:51:05;;;;;;;22.85;17.67;;;11.00;99.90;;;;;;5021318;28;20076;-61
2022/12/30 04:53:31;;;;;;;20.63;16.27;;;11.00;99.90;;;;;;5031551;28;20426;-61
2022/12/30 04:55:56;;;;;;;20.40;16.77;;;11.00;99.90;;;;;;5031827;28;20037;-61
2022/12/30 04:58:23;;;;;;;21.27;17.73;;;11.10;99.90;;;;;;5029991;28;20029;-61
2022/12/30 05:00:50;;;;;;;17.35;14.45;;;11.00;95.30;;;;;;5021638;28;20056;-62
2022/12/30 05:03:17;;;;;;;21.50;17.73;;;11.00;62.80;;;;;;5031782;28;20122;-61
2022/12/30 05:05:42;;;;;;;17.73;15.02;;;11.10;52.30;;;;;;5031816;28;20026;-61
2022/12/30 05:21:37;;;;;;;20.42;15.25;;;11.20;1.00;;;;;;5012522;28;20093;-60
2022/12/30 05:26:47;;;;;;;18.03;16.03;;;11.10;1.00;;;;;;5031997;28;20443;-60
2022/12/30 05:29:13;;;;;;;17.85;15.95;;;11.10;1.00;;;;;;5031188;28;20022;-61
2022/12/30 05:31:38;;;;;;;19.70;16.15;;;11.00;1.00;;;;;;5034137;28;20056;-60
2022/12/30 05:34:04;;;;;;;18.73;16.08;;;11.10;1.00;;;;;;5031705;28;20064;-61
2022/12/30 05:36:30;;;;;;;20.88;16.63;;;11.20;1.00;;;;;;5035187;28;20105;-61
2022/12/30 05:38:55;;;;;;;23.83;19.88;;;11.20;1.00;;;;;;5031847;28;20033;-61
2022/12/30 05:41:24;;;;;;;23.30;18.33;;;11.20;1.00;;;;;;5035184;28;20056;-61
2022/12/30 05:43:50;;;;;;;22.40;18.35;;;11.10;1.00;;;;;;5032760;28;20172;-61
2022/12/30 05:46:16;;;;;;;22.80;19.35;;;11.20;1.00;;;;;;5033589;28;20463;-61
2022/12/30 05:48:42;;;;;;;23.02;19.63;;;11.20;1.00;;;;;;5033569;28;20029;-61
2022/12/30 05:51:07;;;;;;;26.08;21.73;;;11.20;1.00;;;;;;5034867;28;20136;-61
2022/12/30 05:53:48;;;;;;;24.17;19.92;;;11.20;1.00;;;;;;5035063;28;20360;-61
2022/12/30 05:56:14;;;;;;;24.95;21.05;;;11.30;1.00;;;;;;5032549;28;20217;-61
2022/12/30 05:58:40;;;;;;;22.25;19.23;;;11.20;1.00;;;;;;5030908;28;20112;-61
2022/12/30 06:01:12;;;;;;;22.30;19.73;;;11.20;1.00;;;;;;5029884;28;20118;-61
2022/12/30 06:03:37;;;;;;;22.17;19.13;;;11.30;1.00;;;;;;5034557;28;20045;-61
2022/12/30 06:06:06;;;;;;;19.85;17.85;;;11.20;1.00;;;;;;5027787;28;20122;-61
2022/12/30 06:08:33;;;;;;;22.80;20.17;;;11.20;1.00;;;;;;5022490;28;20026;-61
2022/12/30 06:10:59;;;;;;;21.42;19.10;;;11.30;1.00;;;;;;5028664;28;20417;-61
2022/12/30 06:13:25;;;;;;;21.90;19.52;;;11.30;1.00;;;;;;5021094;28;20125;-60
2022/12/30 06:15:51;;;;;;;26.70;22.77;;;11.30;1.00;;;;;;5029150;28;20038;-61
2022/12/30 06:18:16;;;;;;;23.77;20.42;;;11.20;1.00;;;;;;5026844;28;20033;-61
2022/12/30 06:20:44;;;;;;;27.75;21.90;;;11.30;1.00;;;;;;5032585;28;20033;-61
2022/12/30 06:23:09;;;;;;;23.52;20.70;;;11.20;1.00;;;;;;5034511;28;20028;-61
2022/12/30 06:25:35;;;;;;;25.95;21.92;;;11.30;1.00;;;;;;5033013;28;20037;-61
2022/12/30 06:28:00;;;;;;;24.90;20.80;;;11.20;1.00;;;;;;5034395;28;20064;-61
2022/12/30 06:30:26;;;;;;;23.98;19.70;;;11.20;1.00;;;;;;5021666;28;20036;-61
2022/12/30 06:32:56;;;;;;;25.33;21.17;;;11.30;1.00;;;;;;5034148;28;20025;-61
2022/12/30 06:35:22;;;;;;;24.20;20.30;;;11.30;1.00;;;;;;5031921;28;20076;-61
2022/12/30 06:37:48;;;;;;;27.50;22.25;;;11.30;1.00;;;;;;5034302;28;20030;-61
2022/12/30 06:40:14;;;;;;;23.33;20.27;;;11.30;1.00;;;;;;5033795;28;20068;-61
2022/12/30 06:42:39;;;;;;;28.83;22.33;;;11.30;1.00;;;;;;5034009;28;20028;-61
2022/12/30 06:45:07;;;;;;;30.50;22.88;;;11.30;1.00;;;;;;5026984;28;20040;-61
2022/12/30 06:47:32;;;;;;;27.25;22.63;;;11.30;1.00;;;;;;5029254;28;20103;-62
2022/12/30 06:49:58;;;;;;;30.55;24.05;;;11.30;1.00;;;;;;5032645;28;20479;-61
2022/12/30 06:52:24;;;;;;;29.60;22.92;;;11.30;1.00;;;;;;5021970;28;20484;-61
2022/12/30 06:54:49;;;;;;;31.05;24.73;;;11.30;1.00;;;;;;5032718;28;20057;-60
2022/12/30 06:57:15;;;;;;;28.08;22.77;;;11.40;1.00;;;;;;5033841;28;20048;-61
2022/12/30 06:59:41;;;;;;;29.30;22.25;;;11.30;1.00;;;;;;5030169;28;20029;-61
2022/12/30 07:02:06;;;;;;;31.30;23.60;;;11.30;1.00;;;;;;5033811;28;20072;-61
2022/12/30 07:04:32;;;;;;;30.98;23.50;;;11.30;1.00;;;;;;5033519;28;20022;-61
2022/12/30 07:06:58;;;;;;;30.75;23.63;;;11.30;1.00;;;;;;5033821;28;20055;-61
2022/12/30 07:09:23;;;;;;;32.80;25.50;;;11.30;1.00;;;;;;5037910;28;20390;-61
2022/12/30 07:11:49;;;;;;;38.53;26.40;;;11.30;1.00;;;;;;5028617;28;20345;-61
2022/12/30 07:14:15;;;;;;;34.83;25.85;;;11.40;1.00;;;;;;5032876;28;20101;-61
2022/12/30 07:16:40;;;;;;;35.10;26.20;;;11.40;1.00;;;;;;5026522;28;20034;-61
2022/12/30 07:19:06;;;;;;;36.05;26.50;;;11.40;1.00;;;;;;5031582;28;20029;-61
2022/12/30 07:21:32;;;;;;;35.53;26.88;;;11.40;1.00;;;;;;5033208;28;20037;-61
2022/12/30 07:23:59;;;;;;;37.03;27.27;;;11.40;1.00;;;;;;5032696;28;20018;-61
2022/12/30 07:26:25;;;;;;;32.25;25.10;;;11.40;1.00;;;;;;5031383;28;20033;-61
2022/12/30 07:28:54;;;;;;;35.42;24.50;;;11.40;1.00;;;;;;5030390;28;20443;-60
2022/12/30 07:31:20;;;;;;;34.13;26.02;;;11.40;1.00;;;;;;5031372;28;20021;-60
2022/12/30 07:33:46;;;;;;;33.13;25.67;;;11.40;1.00;;;;;;5027495;28;20040;-61
2022/12/30 07:36:12;;;;;;;40.90;28.83;;;11.30;1.00;;;;;;5026401;28;20436;-60
2022/12/30 07:38:38;;;;;;;44.70;31.48;;;11.40;1.00;;;;;;5032881;28;20029;-60
2022/12/30 07:41:04;;;;;;;40.03;29.23;;;11.40;1.00;;;;;;5032323;28;20048;-61
2022/12/30 07:43:30;;;;;;;39.90;28.90;;;11.40;1.00;;;;;;5032313;28;20024;-61
2022/12/30 07:45:57;;;;;;;37.65;29.00;;;11.40;1.00;;;;;;5023736;28;20414;-60
2022/12/30 07:48:23;;;;;;;39.35;29.05;;;11.40;1.00;;;;;;5032425;28;20523;-59
2022/12/30 07:54:10;;;;;;;43.58;30.85;;;11.30;1.00;;;;;;5018259;28;20556;-60
2022/12/30 07:56:36;;;;;;;48.53;32.63;;;11.30;1.00;;;;;;5028774;28;20112;-60
2022/12/30 07:59:02;;;;;;;48.40;33.17;;;11.30;1.00;;;;;;5031133;28;20471;-60
2022/12/30 08:01:29;;;;;;;43.45;30.77;;;11.20;1.00;;;;;;5026722;28;20036;-60
2022/12/30 08:03:55;;;;;;;43.53;30.38;;;11.30;1.00;;;;;;5032320;28;20402;-60
2022/12/30 08:06:21;;;;;;;44.50;29.92;;;11.20;1.00;;;;;;5024874;28;20027;-60
2022/12/30 08:08:46;;;;;;;40.22;29.00;;;11.30;1.00;;;;;;5032583;28;20108;-60
2022/12/30 08:11:14;;;;;;;41.92;30.20;;;11.40;1.00;;;;;;5032385;28;20049;-60
2022/12/30 08:13:42;;;;;;;43.22;31.08;;;11.30;1.00;;;;;;5032127;28;20079;-60
2022/12/30 08:16:13;;;;;;;41.63;30.08;;;11.30;1.00;;;;;;5028323;28;20026;-60
2022/12/30 08:18:39;;;;;;;42.13;29.13;;;11.40;1.00;;;;;;5032376;28;20025;-60
2022/12/30 08:21:07;;;;;;;41.15;30.35;;;11.50;1.00;;;;;;5030393;28;20037;-61
2022/12/30 08:23:33;;;;;;;39.30;29.73;;;11.40;1.00;;;;;;5032353;28;20028;-61
2022/12/30 08:26:05;;;;;;;46.78;32.90;;;11.40;1.00;;;;;;5030590;28;20037;-61
2022/12/30 08:28:30;;;;;;;40.72;28.70;;;11.40;1.00;;;;;;5032158;28;20033;-61
2022/12/30 08:30:56;;;;;;;39.42;29.40;;;11.40;1.00;;;;;;5030814;28;20026;-61
2022/12/30 08:33:22;;;;;;;38.00;28.63;;;11.30;1.00;;;;;;5030988;28;20447;-61
2022/12/30 08:35:47;;;;;;;45.53;30.85;;;11.40;1.00;;;;;;5018320;28;20026;-61
2022/12/30 08:38:13;;;;;;;35.63;28.35;;;11.30;1.00;;;;;;5031865;28;20025;-61
2022/12/30 08:40:39;;;;;;;36.60;27.52;;;11.30;1.00;;;;;;5031463;28;20527;-61
2022/12/30 08:43:04;;;;;;;35.15;27.77;;;11.20;1.00;;;;;;5028804;28;20124;-60
2022/12/30 08:45:30;;;;;;;33.05;25.40;;;11.30;1.00;;;;;;5031770;28;20033;-61
2022/12/30 08:47:55;;;;;;;30.83;24.33;;;11.30;1.00;;;;;;5031098;28;20379;-61
2022/12/30 08:50:21;;;;;;;33.15;26.02;;;11.30;1.00;;;;;;5031823;28;20044;-61
2022/12/30 08:52:47;;;;;;;33.30;25.73;;;11.20;1.00;;;;;;5029539;28;20060;-61
2022/12/30 08:55:12;;;;;;;35.90;26.88;;;11.30;1.00;;;;;;5031905;28;20026;-60
2022/12/30 08:57:39;;;;;;;33.22;25.58;;;11.30;1.00;;;;;;5031248;28;20041;-61
2022/12/30 09:00:06;;;;;;;40.13;28.15;;;11.40;1.00;;;;;;5030952;28;20079;-61
2022/12/30 09:02:35;;;;;;;34.28;26.45;;;11.30;1.00;;;;;;5031652;28;20112;-61
2022/12/30 09:05:01;;;;;;;36.10;26.60;;;11.30;1.00;;;;;;5034139;28;20025;-61
2022/12/30 09:07:27;;;;;;;34.65;27.50;;;11.40;1.00;;;;;;5035836;28;20025;-61
2022/12/30 09:09:52;;;;;;;37.85;27.17;;;11.40;1.00;;;;;;5033841;28;20022;-61
2022/12/30 09:12:18;;;;;;;36.42;28.02;;;11.40;1.00;;;;;;5035752;28;20030;-61
2022/12/30 09:14:50;;;;;;;39.08;29.20;;;11.40;1.00;;;;;;5028814;28;20032;-60
2022/12/30 09:17:16;;;;;;;42.75;31.00;;;11.40;1.00;;;;;;5022332;28;20021;-61
2022/12/30 09:19:42;;;;;;;41.33;28.85;;;11.40;1.00;;;;;;5035211;28;20022;-60
2022/12/30 09:22:07;;;;;;;48.85;32.20;;;11.40;1.00;;;;;;5035342;28;20071;-61
2022/12/30 09:24:33;;;;;;;50.95;33.55;;;11.40;1.00;;;;;;5031063;28;20032;-61
2022/12/30 09:26:58;;;;;;;49.53;31.77;;;11.40;1.00;;;;;;5034142;28;20179;-62
2022/12/30 09:29:24;;;;;;;47.95;32.70;;;11.40;1.00;;;;;;5028744;28;20397;-61
2022/12/30 09:31:50;;;;;;;53.40;34.08;;;11.50;1.00;;;;;;5035413;28;20037;-61
2022/12/30 09:34:15;;;;;;;50.75;34.08;;;11.40;1.00;;;;;;5034974;28;20120;-62
2022/12/30 09:36:41;;;;;;;47.08;30.98;;;11.40;1.00;;;;;;5035120;28;20157;-61
2022/12/30 09:39:07;;;;;;;49.90;33.47;;;11.40;1.00;;;;;;5033165;28;20048;-61
2022/12/30 09:44:41;;;;;;;47.97;30.25;;;11.30;1.00;;;;;;5034639;28;20175;-61
2022/12/30 09:47:21;;;;;;;52.28;31.35;;;11.40;1.00;;;;;;5035220;28;20025;-61
2022/12/30 09:49:53;;;;;;;50.20;34.13;;;11.40;1.00;;;;;;5032066;28;20029;-61
2022/12/30 09:52:39;;;;;;;45.08;31.58;;;11.40;1.00;;;;;;5035276;28;20104;-62
2022/12/30 09:55:13;;;;;;;50.60;34.17;;;11.40;1.00;;;;;;5029923;28;20136;-61
2022/12/30 09:57:41;;;;;;;49.67;32.05;;;11.40;1.00;;;;;;5034592;28;20033;-60
2022/12/30 10:00:21;;;;;;;56.03;35.00;;;11.50;1.00;;;;;;5029959;28;20068;-60
2022/12/30 10:03:10;;;;;;;44.63;30.13;;;11.50;1.00;;;;;;5035244;28;20029;-60
2022/12/30 10:06:05;;;;;;;51.78;32.08;;;11.50;1.00;;;;;;5028294;28;20022;-61
2022/12/30 10:08:58;;;;;;;47.80;30.63;;;11.40;1.00;;;;;;5034945;28;20032;-61
2022/12/30 10:11:45;;;;;;;49.47;30.95;;;11.50;1.00;;;;;;5033290;28;20708;-60
2022/12/30 10:14:40;;;;;;;46.65;32.30;;;11.50;1.00;;;;;;5034314;28;20030;-60
2022/12/30 10:17:27;;;;;;;51.67;33.07;;;11.50;1.00;;;;;;5034582;28;20036;-60
2022/12/30 10:20:13;;;;;;;46.95;33.30;;;11.50;1.00;;;;;;5029149;28;20060;-60
2022/12/30 10:22:50;;;;;;;51.55;31.90;;;11.60;1.00;;;;;;5034459;28;20053;-61
2022/12/30 10:25:29;;;;;;;45.67;30.63;;;11.60;1.00;;;;;;5034092;28;20029;-61
2022/12/30 10:27:56;;;;;;;50.08;32.53;;;11.60;1.00;;;;;;5021002;28;20228;-61
2022/12/30 10:30:26;;;;;;;45.53;30.00;;;11.60;1.00;;;;;;5031040;28;20033;-61
2022/12/30 10:33:00;;;;;;;44.20;29.67;;;11.60;1.00;;;;;;5033215;28;20021;-61
2022/12/30 10:35:30;;;;;;;48.20;32.72;;;11.60;1.00;;;;;;5033591;28;20021;-61
2022/12/30 10:38:08;;;;;;;48.10;31.63;;;11.60;1.00;;;;;;5033761;28;20021;-61
2022/12/30 10:41:01;;;;;;;48.17;30.55;;;11.60;1.00;;;;;;5031361;28;20049;-61
2022/12/30 10:44:05;;;;;;;49.30;31.60;;;11.60;1.00;;;;;;5029615;28;20056;-61
2022/12/30 10:46:36;;;;;;;45.40;30.25;;;11.60;1.00;;;;;;5030867;28;20034;-61
2022/12/30 10:49:04;;;;;;;44.90;31.00;;;11.50;1.00;;;;;;5026170;28;20033;-61
2022/12/30 10:51:30;;;;;;;48.78;31.73;;;11.60;1.00;;;;;;5033811;28;20037;-61
2022/12/30 10:53:57;;;;;;;44.60;31.42;;;11.50;1.00;;;;;;5033860;28;20037;-61
2022/12/30 10:56:28;;;;;;;50.95;30.80;;;11.60;1.00;;;;;;5031938;28;20028;-61
2022/12/30 10:58:58;;;;;;;47.10;31.92;;;11.60;1.00;;;;;;5033820;28;20045;-61
2022/12/30 11:01:29;;;;;;;47.03;32.90;;;11.50;1.00;;;;;;5033037;28;20044;-61
2022/12/30 11:03:58;;;;;;;46.30;32.50;;;11.50;1.00;;;;;;5033446;28;20123;-61
2022/12/30 11:06:31;;;;;;;52.65;33.33;;;11.60;1.00;;;;;;5021518;28;20364;-61
2022/12/30 11:09:12;;;;;;;45.22;30.67;;;11.60;1.00;;;;;;5032492;28;20029;-61
2022/12/30 11:14:42;;;;;;;44.90;31.33;;;11.60;1.00;;;;;;5033298;28;20040;-61
2022/12/30 11:17:16;;;;;;;44.33;28.58;;;11.70;1.00;;;;;;5031857;28;20533;-61
2022/12/30 11:19:43;;;;;;;45.17;28.47;;;11.70;1.00;;;;;;5032988;28;20055;-61
2022/12/30 11:22:10;;;;;;;37.72;27.25;;;11.70;1.00;;;;;;5033113;28;20288;-61
2022/12/30 11:24:43;;;;;;;42.75;28.80;;;11.70;1.00;;;;;;5027138;28;20025;-61
2022/12/30 11:27:09;;;;;;;41.65;28.17;;;11.70;1.00;;;;;;5030417;28;20345;-61
2022/12/30 11:29:36;;;;;;;44.60;27.85;;;11.70;1.00;;;;;;5025670;28;20026;-61
2022/12/30 11:32:10;;;;;;;45.75;29.33;;;11.70;1.00;;;;;;5029381;28;20074;-61
2022/12/30 11:34:38;;;;;;;48.80;28.67;;;11.70;1.00;;;;;;5025536;28;20107;-61
2022/12/30 11:37:32;;;;;;;40.22;26.90;;;11.80;1.00;;;;;;5028877;28;20032;-62
2022/12/30 11:40:24;;;;;;;39.00;27.23;;;11.70;1.00;;;;;;5030029;28;20046;-61
2022/12/30 11:43:14;;;;;;;38.95;27.38;;;11.80;1.00;;;;;;5032431;28;20478;-61
2022/12/30 11:45:55;;;;;;;40.03;29.40;;;11.80;1.00;;;;;;5048699;28;20079;-61
2022/12/30 11:48:32;;;;;;;37.55;27.25;;;11.80;1.00;;;;;;5032553;28;20018;-61
2022/12/30 11:50:59;;;;;;;40.03;27.58;;;11.80;1.00;;;;;;5028605;28;20037;-61
2022/12/30 11:53:29;;;;;;;39.40;27.48;;;11.80;1.00;;;;;;5032498;28;20022;-61
2022/12/30 11:55:56;;;;;;;35.90;27.02;;;11.70;1.00;;;;;;5032339;28;20483;-61
2022/12/30 11:58:22;;;;;;;37.63;27.15;;;11.80;1.00;;;;;;5032455;28;20017;-61
2022/12/30 12:01:03;;;;;;;40.72;27.98;;;11.80;1.00;;;;;;5025403;28;20518;-61
2022/12/30 12:03:29;;;;;;;41.00;28.83;;;11.80;1.00;;;;;;5032378;28;20029;-62
2022/12/30 12:06:07;;;;;;;41.22;29.70;;;11.80;1.00;;;;;;5032425;28;20475;-61
2022/12/30 12:08:39;;;;;;;43.83;31.17;;;11.90;1.00;;;;;;5026261;28;20025;-61
2022/12/30 12:11:12;;;;;;;42.50;29.98;;;11.90;1.00;;;;;;5032161;28;20554;-62
2022/12/30 12:13:59;;;;;;;41.65;30.25;;;11.90;1.00;;;;;;5025288;28;20468;-62
2022/12/30 12:16:44;;;;;;;41.20;29.98;;;11.80;1.00;;;;;;5030763;28;20029;-61
2022/12/30 12:19:22;;;;;;;39.90;28.00;;;11.80;1.00;;;;;;5030600;28;20033;-61
2022/12/30 12:21:52;;;;;;;38.60;26.77;;;11.90;1.00;;;;;;5032138;28;20036;-61
2022/12/30 12:24:28;;;;;;;38.08;28.13;;;11.90;1.00;;;;;;5018565;28;20025;-61
2022/12/30 12:26:56;;;;;;;43.88;29.58;;;11.90;1.00;;;;;;5031888;28;20066;-61
2022/12/30 12:29:23;;;;;;;42.60;30.92;;;11.90;1.00;;;;;;5026813;28;20479;-61
2022/12/30 12:32:34;;;;;;;41.10;28.83;;;11.90;1.00;;;;;;5024050;28;20502;-61
2022/12/30 12:35:10;;;;;;;40.60;28.85;;;11.90;1.00;;;;;;5015153;28;20471;-61
2022/12/30 12:37:52;;;;;;;48.85;31.98;;;11.90;1.00;;;;;;5031476;28;20026;-61
2022/12/30 12:41:00;;;;;;;47.22;33.55;;;11.90;1.00;;;;;;5019757;28;20049;-61
2022/12/30 12:44:21;;;;;;;45.78;33.50;;;11.90;1.00;;;;;;5015836;28;20088;-61
2022/12/30 12:47:25;;;;;;;48.63;34.70;;;11.70;1.00;;;;;;5028476;28;20025;-61
2022/12/30 12:50:29;;;;;;;47.17;34.83;;;11.90;1.00;;;;;;5031376;28;20060;-62
2022/12/30 12:53:22;;;;;;;47.20;33.28;;;11.90;1.00;;;;;;5031713;28;20359;-61
2022/12/30 12:56:19;;;;;;;48.35;35.03;;;11.90;1.00;;;;;;5022653;28;20484;-61
2022/12/30 12:58:45;;;;;;;50.47;34.55;;;11.90;1.00;;;;;;5026846;28;20029;-61
2022/12/30 13:01:30;;;;;;;56.85;40.47;;;11.90;1.00;;;;;;5031390;28;20503;-61
2022/12/30 13:04:28;;;;;;;52.38;36.30;;;11.90;1.00;;;;;;5029548;28;20041;-62
2022/12/30 13:07:17;;;;;;;52.80;35.67;;;11.90;1.00;;;;;;5008990;28;20149;-61
2022/12/30 13:09:49;;;;;;;46.47;34.70;;;11.90;1.00;;;;;;5010163;28;20034;-61
2022/12/30 13:12:21;;;;;;;49.47;36.28;;;11.90;1.00;;;;;;5021981;28;20132;-61
2022/12/30 13:15:21;;;;;;;47.83;34.63;;;12.00;1.00;;;;;;5024543;28;20026;-61
2022/12/30 13:17:51;;;;;;;51.28;35.35;;;11.90;1.00;;;;;;5031358;28;20029;-61
2022/12/30 13:20:21;;;;;;;46.97;33.05;;;11.90;1.00;;;;;;5031032;28;20048;-61
2022/12/30 13:22:49;;;;;;;46.85;33.72;;;12.00;1.00;;;;;;5031332;28;20022;-61
2022/12/30 13:25:25;;;;;;;50.50;35.42;;;11.90;1.00;;;;;;5029137;28;20040;-60
2022/12/30 13:27:54;;;;;;;49.75;34.40;;;11.90;1.00;;;;;;5022344;28;20517;-61
2022/12/30 13:30:21;;;;;;;40.90;30.83;;;11.90;1.00;;;;;;5031075;28;20098;-61
2022/12/30 13:33:10;;;;;;;49.60;34.97;;;11.90;1.00;;;;;;5026737;28;20071;-61
2022/12/30 13:36:05;;;;;;;44.42;32.45;;;11.90;1.00;;;;;;5030699;28;20108;-61
2022/12/30 13:38:55;;;;;;;46.25;32.42;;;11.90;1.00;;;;;;5026850;28;20042;-61
2022/12/30 13:41:21;;;;;;;46.78;34.08;;;11.90;1.00;;;;;;5030563;28;20115;-61
2022/12/30 13:47:32;;;;;;;49.78;34.72;;;11.90;1.00;;;;;;5016107;28;20120;-61
2022/12/30 13:50:11;;;;;;;53.00;35.10;;;11.90;1.00;;;;;;5026063;28;20079;-60
2022/12/30 13:52:45;;;;;;;50.42;36.63;;;12.00;1.00;;;;;;5021989;28;20022;-61
2022/12/30 13:55:30;;;;;;;50.00;37.15;;;12.00;1.00;;;;;;5023337;28;20029;-61
2022/12/30 13:58:25;;;;;;;54.33;35.38;;;11.90;1.00;;;;;;5033064;28;20030;-61
2022/12/30 14:01:18;;;;;;;54.25;36.53;;;12.00;1.00;;;;;;5034682;28;20033;-61
2022/12/30 14:04:05;;;;;;;54.60;36.08;;;12.00;1.00;;;;;;5025249;28;20037;-61
2022/12/30 14:06:39;;;;;;;50.30;34.85;;;12.00;1.00;;;;;;5030420;28;20383;-61
2022/12/30 14:09:17;;;;;;;51.97;33.13;;;12.00;1.00;;;;;;5029655;28;20044;-61
2022/12/30 14:12:04;;;;;;;48.58;33.10;;;12.00;1.00;;;;;;5034529;28;20518;-61
2022/12/30 14:14:31;;;;;;;52.05;35.58;;;12.00;1.00;;;;;;5033676;28;20025;-61
2022/12/30 14:17:17;;;;;;;50.10;33.65;;;12.00;1.00;;;;;;5034605;28;20029;-61
2022/12/30 14:19:49;;;;;;;47.28;34.72;;;12.00;1.00;;;;;;5032855;28;20056;-61
2022/12/30 14:22:40;;;;;;;43.40;32.95;;;12.00;1.00;;;;;;5020689;28;20558;-61